createdAt,value
2023-03-13T00:01:48.677Z,989.07
2023-03-13T00:06:48.540Z,988.94
2023-03-13T00:11:48.453Z,988.82
2023-03-13T00:16:48.440Z,988.81
2023-03-13T00:21:48.357Z,988.71
2023-03-13T00:26:48.301Z,988.59
2023-03-13T00:31:48.276Z,988.61
2023-03-13T00:36:48.377Z,988.38
2023-03-13T00:41:48.120Z,988.36
2023-03-13T00:46:48.157Z,988.30
2023-03-13T00:51:56.969Z,988.15
2023-03-13T00:56:47.987Z,988.12
2023-03-13T01:01:47.941Z,988.04
2023-03-13T01:06:47.889Z,987.91
2023-03-13T01:11:47.830Z,987.71
2023-03-13T01:16:47.770Z,987.46
2023-03-13T01:21:47.731Z,987.40
2023-03-13T01:26:47.621Z,987.35
2023-03-13T01:31:47.583Z,987.26
2023-03-13T01:36:47.531Z,987.17
2023-03-13T01:41:47.480Z,986.82
2023-03-13T01:46:47.493Z,986.82
2023-03-13T01:51:47.357Z,986.85
2023-03-13T01:56:47.331Z,986.71
2023-03-13T02:01:47.335Z,986.54
2023-03-13T02:06:47.196Z,986.40
2023-03-13T02:11:47.118Z,986.30
2023-03-13T02:16:47.310Z,986.24
2023-03-13T02:21:47.035Z,986.11
2023-03-13T02:26:46.959Z,986.01
2023-03-13T02:31:47.180Z,985.83
2023-03-13T02:36:46.935Z,985.75
2023-03-13T02:41:47.813Z,985.73
2023-03-13T02:46:46.817Z,985.60
2023-03-13T02:51:46.688Z,985.58
2023-03-13T02:56:46.619Z,985.36
2023-03-13T03:01:46.717Z,985.30
2023-03-13T03:06:46.494Z,985.31
2023-03-13T03:11:46.520Z,985.23
2023-03-13T03:16:46.466Z,985.15
2023-03-13T03:21:46.373Z,984.98
2023-03-13T03:26:46.292Z,984.82
2023-03-13T03:31:46.259Z,984.89
2023-03-13T03:36:46.252Z,984.84
2023-03-13T03:41:46.101Z,984.82
2023-03-13T03:46:46.109Z,984.79
2023-03-13T03:51:46.068Z,984.65
2023-03-13T03:56:46.017Z,984.67
2023-03-13T04:01:45.932Z,984.76
2023-03-13T04:06:45.857Z,984.76
2023-03-13T04:11:45.771Z,984.89
2023-03-13T04:16:45.764Z,985.00
2023-03-13T04:21:45.676Z,984.74
2023-03-13T04:26:45.638Z,984.70
2023-03-13T04:31:45.588Z,984.74
2023-03-13T04:36:45.525Z,984.59
2023-03-13T04:41:45.445Z,984.58
2023-03-13T04:46:45.355Z,984.47
2023-03-13T04:51:45.347Z,984.52
2023-03-13T04:56:45.346Z,984.27
2023-03-13T05:01:45.247Z,984.31
2023-03-13T05:06:45.210Z,984.28
2023-03-13T05:11:45.114Z,984.22
2023-03-13T05:16:45.114Z,984.19
2023-03-13T05:21:45.022Z,984.16
2023-03-13T05:26:44.944Z,984.09
2023-03-13T05:31:44.893Z,983.91
2023-03-13T05:36:44.850Z,984.09
2023-03-13T05:41:44.780Z,983.95
2023-03-13T05:46:44.797Z,983.94
2023-03-13T05:51:48.476Z,983.99
2023-03-13T05:56:45.591Z,984.02
2023-03-13T06:01:44.744Z,984.05
2023-03-13T06:06:44.605Z,983.75
2023-03-13T06:11:44.668Z,983.78
2023-03-13T06:16:44.719Z,983.78
2023-03-13T06:21:45.260Z,983.76
2023-03-13T06:26:44.304Z,983.72
2023-03-13T06:31:44.332Z,983.64
2023-03-13T06:36:44.243Z,983.67
2023-03-13T06:41:44.183Z,983.82
2023-03-13T06:46:44.101Z,983.76
2023-03-13T06:51:44.015Z,983.72
2023-03-13T06:56:43.927Z,983.80
2023-03-13T07:01:53.249Z,983.94
2023-03-13T07:06:43.851Z,983.85
2023-03-13T07:11:43.886Z,983.85
2023-03-13T07:16:43.808Z,983.82
2023-03-13T07:21:43.706Z,983.82
2023-03-13T07:26:57.697Z,983.80
2023-03-13T07:31:44.607Z,983.75
2023-03-13T07:36:43.609Z,983.48
2023-03-13T07:41:43.477Z,983.54
2023-03-13T07:46:43.378Z,983.41
2023-03-13T07:51:44.474Z,983.48
2023-03-13T07:56:43.278Z,983.39
2023-03-13T08:01:43.240Z,983.40
2023-03-13T08:06:43.164Z,983.42
2023-03-13T08:11:43.139Z,983.30
2023-03-13T08:16:43.146Z,983.27
2023-03-13T08:21:43.061Z,983.26
2023-03-13T08:26:42.947Z,983.28
2023-03-13T08:31:42.906Z,983.37
2023-03-13T08:36:42.865Z,983.43
2023-03-13T08:41:42.773Z,983.41
2023-03-13T08:46:42.817Z,983.44
2023-03-13T08:51:42.661Z,983.44
2023-03-13T08:56:42.655Z,983.54
2023-03-13T09:01:42.569Z,983.39
2023-03-13T09:06:42.541Z,983.38
2023-03-13T09:11:42.503Z,983.47
2023-03-13T09:16:42.417Z,983.40
2023-03-13T09:21:42.338Z,983.34
2023-03-13T09:26:48.963Z,983.21
2023-03-13T09:31:43.244Z,983.17
2023-03-13T09:36:42.162Z,983.25
2023-03-13T09:41:42.120Z,983.03
2023-03-13T09:46:42.134Z,982.98
2023-03-13T09:51:42.040Z,982.91
2023-03-13T09:56:41.953Z,982.83
2023-03-13T10:01:41.923Z,982.75
2023-03-13T10:06:41.860Z,982.72
2023-03-13T10:11:41.823Z,982.63
2023-03-13T10:16:41.759Z,982.59
2023-03-13T10:21:41.668Z,982.60
2023-03-13T10:26:41.618Z,982.51
2023-03-13T10:31:41.652Z,982.47
2023-03-13T10:36:41.534Z,982.31
2023-03-13T10:41:41.431Z,982.44
2023-03-13T10:46:41.436Z,982.35
2023-03-13T10:51:41.347Z,982.22
2023-03-13T10:56:41.284Z,982.14
2023-03-13T11:01:41.258Z,981.97
2023-03-13T11:06:41.209Z,982.10
2023-03-13T11:11:41.157Z,982.03
2023-03-13T11:16:41.191Z,981.83
2023-03-13T11:21:41.037Z,981.88
2023-03-13T11:26:40.994Z,981.87
2023-03-13T11:31:40.968Z,981.75
2023-03-13T11:36:40.868Z,981.65
2023-03-13T11:41:40.812Z,981.56
2023-03-13T11:46:40.939Z,981.49
2023-03-13T11:51:40.698Z,981.50
2023-03-13T11:56:40.628Z,981.46
2023-03-13T12:01:40.565Z,981.22
2023-03-13T12:06:40.522Z,981.03
2023-03-13T12:11:40.424Z,980.84
2023-03-13T12:16:40.507Z,980.93
2023-03-13T12:21:40.460Z,980.97
2023-03-13T12:26:40.311Z,980.77
2023-03-13T12:31:40.227Z,980.64
2023-03-13T12:36:40.176Z,980.68
2023-03-13T12:41:40.134Z,980.52
2023-03-13T12:46:40.204Z,980.54
2023-03-13T12:51:40.021Z,980.66
2023-03-13T12:56:39.946Z,980.38
2023-03-13T13:01:39.966Z,980.48
2023-03-13T13:06:39.960Z,980.36
2023-03-13T13:11:39.833Z,980.14
2023-03-13T13:16:39.752Z,980.21
2023-03-13T13:21:40.726Z,980.01
2023-03-13T13:26:39.627Z,979.91
2023-03-13T13:31:39.646Z,979.95
2023-03-13T13:36:39.575Z,980.03
2023-03-13T13:41:39.587Z,979.89
2023-03-13T13:46:39.454Z,979.86
2023-03-13T13:51:39.451Z,979.83
2023-03-13T13:56:39.397Z,979.78
2023-03-13T14:01:39.290Z,979.59
2023-03-13T14:06:39.166Z,979.46
2023-03-13T14:11:39.174Z,979.45
2023-03-13T14:16:39.164Z,979.43
2023-03-13T14:21:39.043Z,979.34
2023-03-13T14:26:38.976Z,979.41
2023-03-13T14:31:38.993Z,979.17
2023-03-13T14:36:38.853Z,979.23
2023-03-13T14:41:38.814Z,979.05
2023-03-13T14:46:38.804Z,979.05
2023-03-13T14:51:38.745Z,979.12
2023-03-13T14:56:38.612Z,978.95
2023-03-13T15:01:38.596Z,978.86
2023-03-13T15:06:38.695Z,978.82
2023-03-13T15:11:38.576Z,978.78
2023-03-13T15:16:38.533Z,978.72
2023-03-13T15:21:38.399Z,978.60
2023-03-13T15:26:38.310Z,978.53
2023-03-13T15:31:38.325Z,978.42
2023-03-13T15:36:38.182Z,978.25
2023-03-13T15:41:38.181Z,978.17
2023-03-13T15:46:38.108Z,978.04
2023-03-13T15:51:38.102Z,978.04
2023-03-13T15:56:38.048Z,977.95
2023-03-13T16:01:38.019Z,977.85
2023-03-13T16:06:37.875Z,977.81
2023-03-13T16:11:37.880Z,977.73
2023-03-13T16:16:38.081Z,977.55
2023-03-13T16:21:37.832Z,977.44
2023-03-13T16:26:37.679Z,977.51
2023-03-13T16:31:37.624Z,977.39
2023-03-13T16:36:37.525Z,977.39
2023-03-13T16:41:37.535Z,977.34
2023-03-13T16:46:37.475Z,977.33
2023-03-13T16:51:37.380Z,977.40
2023-03-13T16:56:37.303Z,977.28
2023-03-13T17:01:37.246Z,977.38
2023-03-13T17:06:37.367Z,977.47
2023-03-13T17:11:37.307Z,977.42
2023-03-13T17:16:37.198Z,977.46
2023-03-13T17:21:37.138Z,977.40
2023-03-13T17:26:39.067Z,977.38
2023-03-13T17:31:37.081Z,977.40
2023-03-13T17:36:37.074Z,977.41
2023-03-13T17:41:36.787Z,977.36
2023-03-13T17:46:36.781Z,977.37
2023-03-13T17:51:36.676Z,977.27
2023-03-13T17:56:36.797Z,977.19
2023-03-13T18:01:36.852Z,977.13
2023-03-13T18:06:36.710Z,977.14
2023-03-13T18:11:36.580Z,977.02
2023-03-13T18:16:36.412Z,977.01
2023-03-13T18:21:36.385Z,976.95
2023-03-13T18:26:37.312Z,977.16
2023-03-13T18:31:36.424Z,977.10
2023-03-13T18:36:36.261Z,977.03
2023-03-13T18:41:36.179Z,977.02
2023-03-13T18:46:36.197Z,977.02
2023-03-13T18:51:36.027Z,977.08
2023-03-13T18:56:35.971Z,977.11
2023-03-13T19:01:35.988Z,977.24
2023-03-13T19:06:35.931Z,977.23
2023-03-13T19:11:35.938Z,977.09
2023-03-13T19:16:35.974Z,977.13
2023-03-13T19:21:35.694Z,977.03
2023-03-13T19:26:35.673Z,977.00
2023-03-13T19:31:35.615Z,976.95
2023-03-13T19:36:36.342Z,976.97
2023-03-13T19:41:35.579Z,976.74
2023-03-13T19:46:35.683Z,976.57
2023-03-13T19:51:35.524Z,976.45
2023-03-13T19:56:35.322Z,976.29
2023-03-13T20:01:35.286Z,976.26
2023-03-13T20:06:35.211Z,976.39
2023-03-13T20:11:35.275Z,976.36
2023-03-13T20:16:35.462Z,976.47
2023-03-13T20:21:35.033Z,976.40
2023-03-13T20:26:34.989Z,976.45
2023-03-13T20:31:34.954Z,976.50
2023-03-13T20:36:34.928Z,976.54
2023-03-13T20:41:35.090Z,976.61
2023-03-13T20:46:34.825Z,976.54
2023-03-13T20:51:34.876Z,976.48
2023-03-13T20:56:34.730Z,976.38
2023-03-13T21:01:34.630Z,976.35
2023-03-13T21:06:34.525Z,976.34
2023-03-13T21:11:34.518Z,976.43
2023-03-13T21:16:34.627Z,976.43
2023-03-13T21:21:34.469Z,976.37
2023-03-13T21:26:34.566Z,976.19
2023-03-13T21:31:34.481Z,975.93
2023-03-13T21:36:34.218Z,976.02
2023-03-13T21:41:34.167Z,975.73
2023-03-13T21:46:34.180Z,975.64
2023-03-13T21:51:34.166Z,975.72
2023-03-13T21:56:34.174Z,975.66
2023-03-13T22:01:34.138Z,975.54
2023-03-13T22:06:33.891Z,975.75
2023-03-13T22:11:34.031Z,976.07
2023-03-13T22:16:33.739Z,976.17
2023-03-13T22:21:33.736Z,976.14
2023-03-13T22:26:33.660Z,976.23
2023-03-13T22:31:33.691Z,976.38
2023-03-13T22:36:33.561Z,976.42
2023-03-13T22:41:33.509Z,976.28
2023-03-13T22:46:33.439Z,976.28
2023-03-13T22:51:33.399Z,976.13
2023-03-13T22:56:33.347Z,976.12
2023-03-13T23:01:33.301Z,976.05
2023-03-13T23:06:33.358Z,975.98
2023-03-13T23:11:33.180Z,975.92
2023-03-13T23:16:33.091Z,975.67
2023-03-13T23:21:33.133Z,976.04
2023-03-13T23:26:33.209Z,976.05
2023-03-13T23:31:32.921Z,976.19
2023-03-13T23:36:32.970Z,976.14
2023-03-13T23:41:32.811Z,976.02
2023-03-13T23:46:32.849Z,975.82
2023-03-13T23:51:32.817Z,975.83
2023-03-13T23:56:32.669Z,975.71
